createdAt,value
2022-09-28T00:00:41.522Z,19.80
2022-09-28T00:06:06.714Z,18.50
2022-09-28T00:11:15.609Z,18.00
2022-09-28T00:16:21.284Z,18.60
2022-09-28T00:21:27.099Z,20.70
2022-09-28T00:26:31.462Z,18.10
2022-09-28T00:31:34.592Z,17.70
2022-09-28T00:36:37.375Z,19.20
2022-09-28T00:41:40.576Z,17.60
2022-09-28T00:46:43.499Z,17.40
2022-09-28T00:51:48.442Z,17.60
2022-09-28T00:56:51.416Z,18.30
2022-09-28T01:01:54.318Z,17.40
2022-09-28T01:06:59.202Z,17.70
2022-09-28T01:12:02.692Z,17.10
2022-09-28T01:17:15.554Z,17.00
2022-09-28T01:22:36.483Z,16.60
2022-09-28T01:27:44.851Z,18.10
2022-09-28T01:33:01.499Z,15.90
2022-09-28T01:38:09.500Z,7.70
2022-09-28T01:43:20.080Z,6.60
2022-09-28T01:48:43.878Z,6.60
2022-09-28T01:53:51.929Z,5.90
2022-09-28T01:59:00.244Z,6.20
2022-09-28T02:04:12.833Z,6.50
2022-09-28T02:09:37.640Z,4.80
2022-09-28T02:14:42.521Z,4.70
2022-09-28T02:19:45.187Z,6.90
2022-09-28T02:24:57.101Z,6.30
2022-09-28T02:30:00.543Z,4.40
2022-09-28T02:35:03.300Z,2.70
2022-09-28T02:40:29.327Z,3.30
2022-09-28T02:46:16.571Z,2.30
2022-09-28T02:51:41.022Z,1.90
2022-09-28T02:57:11.607Z,1.90
2022-09-28T03:02:25.570Z,2.10
2022-09-28T03:07:40.619Z,2.20
2022-09-28T03:12:47.261Z,1.70
2022-09-28T03:17:50.009Z,1.90
2022-09-28T03:23:12.685Z,1.90
2022-09-28T03:28:15.610Z,1.90
2022-09-28T03:33:19.919Z,1.70
2022-09-28T03:38:22.581Z,1.90
2022-09-28T03:43:26.859Z,1.80
2022-09-28T03:48:35.080Z,1.60
2022-09-28T03:53:38.407Z,2.10
2022-09-28T03:58:41.057Z,1.80
2022-09-28T04:03:44.847Z,2.10
2022-09-28T04:08:47.921Z,2.40
2022-09-28T04:13:50.824Z,2.80
2022-09-28T04:18:53.698Z,2.80
2022-09-28T04:23:58.279Z,2.40
2022-09-28T04:29:16.251Z,2.70
2022-09-28T04:34:21.535Z,3.30
2022-09-28T04:39:24.292Z,4.00
2022-09-28T04:44:26.961Z,5.60
2022-09-28T04:54:33.174Z,3.40
2022-09-28T04:59:37.642Z,3.60
2022-09-28T05:04:41.072Z,3.60
2022-09-28T05:09:44.006Z,4.50
2022-09-28T05:14:46.718Z,4.50
2022-09-28T05:19:49.382Z,6.30
2022-09-28T05:24:52.158Z,5.20
2022-09-28T05:29:54.836Z,3.70
2022-09-28T05:34:57.587Z,3.70
2022-09-28T05:40:00.460Z,8.60
2022-09-28T05:45:05.218Z,5.20
2022-09-28T06:00:14.391Z,3.60
2022-09-28T06:05:17.073Z,3.70
2022-09-28T06:10:19.808Z,9.10
2022-09-28T06:15:24.224Z,21.40
2022-09-28T06:20:29.434Z,7.40
2022-09-28T06:25:32.484Z,4.10
2022-09-28T06:30:38.456Z,3.30
2022-09-28T06:35:42.346Z,5.50
2022-09-28T06:40:45.813Z,9.00
2022-09-28T06:45:53.635Z,3.90
2022-09-28T06:50:56.478Z,6.20
2022-09-28T06:56:00.007Z,7.20
2022-09-28T07:01:04.296Z,16.60
2022-09-28T07:06:11.461Z,10.80
2022-09-28T07:11:14.217Z,6.00
2022-09-28T07:16:16.977Z,5.80
2022-09-28T07:21:29.188Z,9.30
2022-09-28T07:26:33.405Z,7.10
2022-09-28T07:31:36.123Z,6.10
2022-09-28T07:36:39.107Z,5.60
2022-09-28T07:41:43.148Z,4.80
2022-09-28T07:46:46.669Z,4.00
2022-09-28T07:51:49.396Z,3.10
2022-09-28T07:56:52.086Z,3.60
2022-09-28T08:01:54.894Z,6.60
2022-09-28T08:06:57.684Z,7.70
2022-09-28T08:12:00.357Z,8.10
2022-09-28T08:17:04.723Z,8.10
2022-09-28T08:22:08.377Z,6.20
2022-09-28T08:27:11.588Z,6.50
2022-09-28T08:32:14.915Z,6.20
2022-09-28T08:37:18.050Z,6.30
2022-09-28T08:48:19.091Z,6.70
2022-09-28T08:53:47.374Z,7.00
2022-09-28T08:58:56.273Z,7.00
2022-09-28T09:04:03.087Z,6.50
2022-09-28T09:09:36.275Z,6.30
2022-09-28T09:15:02.689Z,7.40
2022-09-28T09:20:30.244Z,7.40
2022-09-28T09:25:38.718Z,8.70
2022-09-28T09:31:08.430Z,6.90
2022-09-28T09:36:20.009Z,6.80
2022-09-28T09:41:47.266Z,6.90
2022-09-28T09:47:08.240Z,6.90
2022-09-28T09:52:23.955Z,7.10
2022-09-28T09:57:39.626Z,6.30
2022-09-28T10:02:47.357Z,5.60
2022-09-28T10:08:03.257Z,6.20
2022-09-28T10:13:11.318Z,6.10
2022-09-28T10:18:16.969Z,5.70
2022-09-28T10:23:25.894Z,6.20
2022-09-28T10:28:48.874Z,6.70
2022-09-28T10:33:53.904Z,7.00
2022-09-28T10:38:57.928Z,6.00
2022-09-28T10:44:06.908Z,5.20
2022-09-28T10:49:22.288Z,5.40
2022-09-28T10:54:30.239Z,5.20
2022-09-28T10:59:44.515Z,5.80
2022-09-28T11:04:54.232Z,5.00
2022-09-28T11:09:58.974Z,5.30
2022-09-28T11:15:05.138Z,4.60
2022-09-28T11:20:29.405Z,4.70
2022-09-28T11:25:32.142Z,4.40
2022-09-28T11:30:34.783Z,4.90
2022-09-28T11:36:02.200Z,4.50
2022-09-28T11:41:37.290Z,4.50
2022-09-28T11:47:12.369Z,4.80
2022-09-28T11:52:22.056Z,4.40
2022-09-28T11:57:29.502Z,5.00
2022-09-28T12:02:39.933Z,4.70
2022-09-28T12:07:47.568Z,4.90
2022-09-28T12:12:58.781Z,5.30
2022-09-28T12:18:07.816Z,5.30
2022-09-28T12:23:19.477Z,5.80
2022-09-28T12:28:33.468Z,5.60
2022-09-28T12:33:38.949Z,4.50
2022-09-28T12:39:18.076Z,5.20
2022-09-28T12:44:29.036Z,4.60
2022-09-28T12:50:37.171Z,5.10
2022-09-28T12:55:37.092Z,5.30
2022-09-28T13:01:21.674Z,4.90
2022-09-28T13:07:12.311Z,4.30
2022-09-28T13:12:24.965Z,5.00
2022-09-28T13:17:40.462Z,5.40
2022-09-28T13:23:09.070Z,4.80
2022-09-28T13:28:15.577Z,4.90
2022-09-28T13:33:31.014Z,5.30
2022-09-28T13:38:47.547Z,4.90
2022-09-28T13:43:50.140Z,4.50
2022-09-28T13:49:11.434Z,4.00
2022-09-28T13:54:38.218Z,4.40
2022-09-28T14:00:11.827Z,3.70
2022-09-28T14:05:25.049Z,4.30
2022-09-28T14:15:49.570Z,4.30
2022-09-28T14:20:59.271Z,3.90
2022-09-28T14:26:24.914Z,4.40
2022-09-28T14:31:29.425Z,4.80
2022-09-28T14:37:02.173Z,4.40
2022-09-28T14:42:15.781Z,5.50
2022-09-28T14:47:35.941Z,6.00
2022-09-28T14:52:47.681Z,4.90
2022-09-28T14:57:57.378Z,5.10
2022-09-28T15:03:07.744Z,7.70
2022-09-28T15:08:13.464Z,4.40
2022-09-28T15:13:27.871Z,4.00
2022-09-28T15:18:42.651Z,7.00
2022-09-28T15:23:46.869Z,7.70
2022-09-28T15:28:49.982Z,9.50
2022-09-28T15:34:15.571Z,8.70
2022-09-28T15:39:37.296Z,7.80
2022-09-28T15:44:43.054Z,8.10
2022-09-28T15:50:04.372Z,10.30
2022-09-28T15:55:24.741Z,13.70
2022-09-28T16:00:30.678Z,20.20
2022-09-28T16:06:05.810Z,10.50
2022-09-28T16:11:17.037Z,15.10
2022-09-28T16:16:46.242Z,18.40
2022-09-28T16:21:51.921Z,12.00
2022-09-28T16:27:07.097Z,13.30
2022-09-28T16:32:25.199Z,14.40
2022-09-28T16:37:32.180Z,13.60
2022-09-28T16:42:35.815Z,14.30
2022-09-28T16:47:39.712Z,13.90
2022-09-28T16:53:01.623Z,16.80
2022-09-28T16:58:05.010Z,20.10
2022-09-28T17:03:15.896Z,34.00
2022-09-28T17:08:21.679Z,27.60
2022-09-28T17:13:36.008Z,27.20
2022-09-28T17:18:40.008Z,40.00
2022-09-28T17:23:47.373Z,30.00
2022-09-28T17:28:50.074Z,27.40
2022-09-28T17:33:52.847Z,26.30
2022-09-28T17:38:55.678Z,24.20
2022-09-28T17:43:58.552Z,25.70
2022-09-28T17:49:03.678Z,23.40
2022-09-28T17:54:08.137Z,17.80
2022-09-28T17:59:14.548Z,19.10
2022-09-28T18:04:39.867Z,20.20
2022-09-28T18:09:40.205Z,19.20
2022-09-28T18:14:42.920Z,15.80
2022-09-28T18:19:45.602Z,17.10
2022-09-28T18:24:48.245Z,19.40
2022-09-28T18:29:50.885Z,17.40
2022-09-28T18:34:53.802Z,18.00
2022-09-28T18:39:56.495Z,21.90
2022-09-28T18:44:59.159Z,26.40
2022-09-28T18:50:01.770Z,22.10
2022-09-28T18:55:06.110Z,18.40
2022-09-28T19:00:11.217Z,13.40
2022-09-28T19:05:13.823Z,13.20
2022-09-28T19:10:16.477Z,13.90
2022-09-28T19:15:21.088Z,14.10
2022-09-28T19:20:23.950Z,12.90
2022-09-28T19:25:26.610Z,12.30
2022-09-28T19:30:29.881Z,11.60
2022-09-28T19:35:33.055Z,16.40
2022-09-28T19:40:37.484Z,14.90
2022-09-28T19:45:41.355Z,11.00
2022-09-28T19:50:46.585Z,11.30
2022-09-28T19:55:56.880Z,10.50
2022-09-28T20:00:59.662Z,9.30
2022-09-28T20:06:02.850Z,8.60
2022-09-28T20:11:06.111Z,9.70
2022-09-28T20:21:17.106Z,9.50
2022-09-28T20:26:20.921Z,12.70
2022-09-28T20:31:25.145Z,9.70
2022-09-28T20:36:32.029Z,6.00
2022-09-28T20:41:35.730Z,6.00
2022-09-28T20:46:38.557Z,7.60
2022-09-28T20:51:41.208Z,4.40
2022-09-28T20:56:43.930Z,4.70
2022-09-28T21:01:46.723Z,4.30
2022-09-28T21:06:49.578Z,5.90
2022-09-28T21:11:52.283Z,5.50
2022-09-28T21:16:55.183Z,9.10
2022-09-28T21:21:57.873Z,10.00
2022-09-28T21:27:00.521Z,11.20
2022-09-28T21:32:03.277Z,11.10
2022-09-28T21:37:06.315Z,12.30
2022-09-28T21:42:08.961Z,22.80
2022-09-28T21:47:11.680Z,20.30
2022-09-28T21:52:14.351Z,15.40
2022-09-28T21:57:18.926Z,5.80
2022-09-28T22:02:22.677Z,6.00
2022-09-28T22:07:25.335Z,5.40
2022-09-28T22:12:31.010Z,6.20
2022-09-28T22:17:33.692Z,6.20
2022-09-28T22:22:36.536Z,7.50
2022-09-28T22:27:40.851Z,6.10
2022-09-28T22:32:43.646Z,6.30
2022-09-28T22:37:46.303Z,9.30
2022-09-28T22:42:49.761Z,8.90
2022-09-28T22:47:52.471Z,5.90
2022-09-28T22:52:56.299Z,5.80
2022-09-28T22:57:58.981Z,6.00
2022-09-28T23:03:01.871Z,6.10
2022-09-28T23:08:04.790Z,5.30
2022-09-28T23:13:07.490Z,5.30
2022-09-28T23:18:10.399Z,5.60
2022-09-28T23:23:13.542Z,6.10
2022-09-28T23:28:16.609Z,6.00
2022-09-28T23:33:21.153Z,5.80
2022-09-28T23:38:23.833Z,6.10
2022-09-28T23:43:26.617Z,6.30
2022-09-28T23:48:29.555Z,5.30
2022-09-28T23:53:35.079Z,6.50
2022-09-28T23:58:37.819Z,7.20
